sensor_id;sensor_type;location;lat;lon;timestamp;pressure;altitude;pressure_sealevel;temperature;humidity
19751;BME280;4663;49.120;9.730;2022-07-05T18:11:09;98349.97;;;16.41;65.50
19751;BME280;4663;49.120;9.730;2022-07-05T18:13:37;98360.31;;;16.72;64.21
19751;BME280;4663;49.120;9.730;2022-07-05T18:16:02;98355.63;;;16.86;64.02
19751;BME280;4663;49.120;9.730;2022-07-05T18:18:28;98360.78;;;16.94;63.70
19751;BME280;4663;49.120;9.730;2022-07-05T18:20:54;98359.91;;;17.00;63.71
19751;BME280;4663;49.120;9.730;2022-07-05T18:23:19;98357.72;;;17.16;63.88
19751;BME280;4663;49.120;9.730;2022-07-05T18:25:44;98349.97;;;17.13;62.17
19751;BME280;4663;49.120;9.730;2022-07-05T18:28:10;98356.63;;;17.24;62.04
19751;BME280;4663;49.120;9.730;2022-07-05T18:30:37;98360.88;;;17.13;63.90
19751;BME280;4663;49.120;9.730;2022-07-05T18:33:03;98341.50;;;17.28;60.82
19751;BME280;4663;49.120;9.730;2022-07-05T18:35:28;98351.19;;;17.24;61.52
19751;BME280;4663;49.120;9.730;2022-07-05T18:37:54;98348.94;;;17.14;62.26
19751;BME280;4663;49.120;9.730;2022-07-05T18:40:19;98347.66;;;17.16;60.84
19751;BME280;4663;49.120;9.730;2022-07-05T18:42:45;98353.13;;;17.16;60.72
19751;BME280;4663;49.120;9.730;2022-07-05T18:45:10;98353.66;;;16.93;62.50
19751;BME280;4663;49.120;9.730;2022-07-05T18:47:36;98347.34;;;16.99;60.82
19751;BME280;4663;49.120;9.730;2022-07-05T18:50:05;98349.78;;;17.07;60.37
19751;BME280;4663;49.120;9.730;2022-07-05T18:52:31;98350.75;;;16.88;60.82
19751;BME280;4663;49.120;9.730;2022-07-05T18:54:56;98362.50;;;16.88;62.28
19751;BME280;4663;49.120;9.730;2022-07-05T18:57:21;98368.00;;;16.81;63.24
19751;BME280;4663;49.120;9.730;2022-07-05T18:59:47;98366.50;;;16.86;63.72
19751;BME280;4663;49.120;9.730;2022-07-05T19:02:12;98365.50;;;16.73;62.44
19751;BME280;4663;49.120;9.730;2022-07-05T19:04:41;98359.78;;;16.88;62.35
19751;BME280;4663;49.120;9.730;2022-07-05T19:07:07;98362.28;;;16.90;61.46
19751;BME280;4663;49.120;9.730;2022-07-05T19:09:52;98357.88;;;16.89;60.78
19751;BME280;4663;49.120;9.730;2022-07-05T19:12:36;98357.97;;;16.75;60.96
19751;BME280;4663;49.120;9.730;2022-07-05T19:15:20;98367.50;;;16.52;61.67
19751;BME280;4663;49.120;9.730;2022-07-05T19:17:46;98357.75;;;16.38;62.82
19751;BME280;4663;49.120;9.730;2022-07-05T19:20:11;98361.53;;;16.23;63.13
19751;BME280;4663;49.120;9.730;2022-07-05T19:22:37;98353.13;;;16.32;62.39
19751;BME280;4663;49.120;9.730;2022-07-05T19:25:04;98360.25;;;16.33;61.99
19751;BME280;4663;49.120;9.730;2022-07-05T19:27:30;98368.28;;;16.14;62.52
19751;BME280;4663;49.120;9.730;2022-07-05T19:29:55;98372.88;;;16.13;63.68
19751;BME280;4663;49.120;9.730;2022-07-05T19:32:21;98367.84;;;16.17;63.78
19751;BME280;4663;49.120;9.730;2022-07-05T19:34:47;98365.13;;;16.10;62.66
19751;BME280;4663;49.120;9.730;2022-07-05T19:37:12;98368.72;;;16.11;61.99
19751;BME280;4663;49.120;9.730;2022-07-05T19:39:38;98369.97;;;16.01;63.23
19751;BME280;4663;49.120;9.730;2022-07-05T19:42:03;98370.00;;;15.95;63.82
19751;BME280;4663;49.120;9.730;2022-07-05T19:44:30;98372.50;;;15.96;63.79
19751;BME280;4663;49.120;9.730;2022-07-05T19:46:56;98362.47;;;15.83;62.80
19751;BME280;4663;49.120;9.730;2022-07-05T19:49:21;98370.84;;;15.82;62.77
19751;BME280;4663;49.120;9.730;2022-07-05T19:51:47;98384.31;;;15.56;65.17
19751;BME280;4663;49.120;9.730;2022-07-05T19:54:13;98381.16;;;15.32;66.32
19751;BME280;4663;49.120;9.730;2022-07-05T19:56:40;98370.06;;;15.61;63.64
19751;BME280;4663;49.120;9.730;2022-07-05T19:59:05;98373.84;;;15.60;63.83
19751;BME280;4663;49.120;9.730;2022-07-05T20:01:31;98379.44;;;15.72;63.32
19751;BME280;4663;49.120;9.730;2022-07-05T20:04:00;98383.66;;;15.61;63.77
19751;BME280;4663;49.120;9.730;2022-07-05T20:06:26;98389.91;;;15.27;65.10
19751;BME280;4663;49.120;9.730;2022-07-05T20:08:52;98391.78;;;15.34;65.23
19751;BME280;4663;49.120;9.730;2022-07-05T20:11:18;98401.00;;;15.26;66.18
19751;BME280;4663;49.120;9.730;2022-07-05T20:13:44;98400.16;;;15.25;67.09
19751;BME280;4663;49.120;9.730;2022-07-05T20:16:10;98395.34;;;15.34;65.88
19751;BME280;4663;49.120;9.730;2022-07-05T20:18:35;98398.91;;;15.35;66.08
19751;BME280;4663;49.120;9.730;2022-07-05T20:21:01;98398.91;;;15.35;66.46
19751;BME280;4663;49.120;9.730;2022-07-05T20:23:27;98401.59;;;15.08;68.04
19751;BME280;4663;49.120;9.730;2022-07-05T20:25:53;98404.94;;;15.10;67.62
19751;BME280;4663;49.120;9.730;2022-07-05T20:28:18;98406.59;;;14.97;68.27
19751;BME280;4663;49.120;9.730;2022-07-05T20:30:44;98407.25;;;15.06;67.95
19751;BME280;4663;49.120;9.730;2022-07-05T20:33:11;98413.72;;;15.05;68.08
19751;BME280;4663;49.120;9.730;2022-07-05T20:35:36;98417.31;;;15.12;68.17
19751;BME280;4663;49.120;9.730;2022-07-05T20:38:02;98405.13;;;14.95;68.28
19751;BME280;4663;49.120;9.730;2022-07-05T20:40:27;98415.78;;;14.96;68.52
19751;BME280;4663;49.120;9.730;2022-07-05T20:42:53;98421.81;;;14.85;70.24
19751;BME280;4663;49.120;9.730;2022-07-05T20:45:18;98418.84;;;14.73;68.59
19751;BME280;4663;49.120;9.730;2022-07-05T20:47:43;98421.81;;;14.85;69.33
19751;BME280;4663;49.120;9.730;2022-07-05T20:50:09;98424.06;;;14.74;70.31
19751;BME280;4663;49.120;9.730;2022-07-05T20:52:34;98418.91;;;14.80;69.41
19751;BME280;4663;49.120;9.730;2022-07-05T20:55:00;98429.97;;;14.78;69.89
19751;BME280;4663;49.120;9.730;2022-07-05T20:57:25;98429.72;;;14.73;70.45
19751;BME280;4663;49.120;9.730;2022-07-05T20:59:50;98427.38;;;14.63;70.33
19751;BME280;4663;49.120;9.730;2022-07-05T21:02:16;98426.13;;;14.66;71.18
19751;BME280;4663;49.120;9.730;2022-07-05T21:04:41;98430.09;;;14.63;71.09
19751;BME280;4663;49.120;9.730;2022-07-05T21:07:06;98439.88;;;14.57;71.64
19751;BME280;4663;49.120;9.730;2022-07-05T21:09:33;98444.84;;;14.47;71.48
19751;BME280;4663;49.120;9.730;2022-07-05T21:11:59;98448.97;;;14.36;71.56
19751;BME280;4663;49.120;9.730;2022-07-05T21:14:24;98450.41;;;14.32;71.50
19751;BME280;4663;49.120;9.730;2022-07-05T21:16:50;98457.00;;;14.16;72.61
19751;BME280;4663;49.120;9.730;2022-07-05T21:19:15;98462.38;;;14.09;72.58
19751;BME280;4663;49.120;9.730;2022-07-05T21:21:41;98462.38;;;14.09;72.56
19751;BME280;4663;49.120;9.730;2022-07-05T21:24:06;98470.13;;;14.12;73.07
19751;BME280;4663;49.120;9.730;2022-07-05T21:26:32;98475.09;;;14.08;73.19
19751;BME280;4663;49.120;9.730;2022-07-05T21:28:57;98479.94;;;14.13;73.36
19751;BME280;4663;49.120;9.730;2022-07-05T21:31:23;98477.53;;;13.96;72.88
19751;BME280;4663;49.120;9.730;2022-07-05T21:33:48;98483.66;;;13.83;74.27
19751;BME280;4663;49.120;9.730;2022-07-05T21:36:14;98492.28;;;13.87;74.29
19751;BME280;4663;49.120;9.730;2022-07-05T21:38:39;98500.53;;;13.79;74.50
19751;BME280;4663;49.120;9.730;2022-07-05T21:41:05;98500.34;;;13.80;74.96
19751;BME280;4663;49.120;9.730;2022-07-05T21:43:30;98505.50;;;13.75;74.30
19751;BME280;4663;49.120;9.730;2022-07-05T21:45:56;98504.31;;;13.56;75.92
19751;BME280;4663;49.120;9.730;2022-07-05T21:48:21;98503.66;;;13.54;76.17
19751;BME280;4663;49.120;9.730;2022-07-05T21:50:47;98506.38;;;13.54;75.28
19751;BME280;4663;49.120;9.730;2022-07-05T21:53:12;98506.31;;;13.47;74.73
19751;BME280;4663;49.120;9.730;2022-07-05T21:55:38;98506.50;;;13.67;74.74
19751;BME280;4663;49.120;9.730;2022-07-05T21:58:03;98511.97;;;13.52;74.75
19751;BME280;4663;49.120;9.730;2022-07-05T22:00:29;98502.56;;;13.48;73.53
19751;BME280;4663;49.120;9.730;2022-07-05T22:03:13;98505.34;;;13.33;73.34
19751;BME280;4663;49.120;9.730;2022-07-05T22:05:57;98502.56;;;13.26;73.81
19751;BME280;4663;49.120;9.730;2022-07-05T22:08:22;98505.72;;;13.30;73.11
19751;BME280;4663;49.120;9.730;2022-07-05T22:10:48;98503.00;;;13.30;73.24
19751;BME280;4663;49.120;9.730;2022-07-05T22:13:13;98505.94;;;13.13;72.78
19751;BME280;4663;49.120;9.730;2022-07-05T22:15:39;98504.03;;;12.77;73.84
19751;BME280;4663;49.120;9.730;2022-07-05T22:18:04;98521.09;;;12.77;74.13
19751;BME280;4663;49.120;9.730;2022-07-05T22:20:30;98516.31;;;12.94;74.45
19751;BME280;4663;49.120;9.730;2022-07-05T22:22:56;98519.22;;;12.93;73.29
19751;BME280;4663;49.120;9.730;2022-07-05T22:25:22;98524.94;;;12.98;74.47
19751;BME280;4663;49.120;9.730;2022-07-05T22:27:47;98514.94;;;12.83;73.64
19751;BME280;4663;49.120;9.730;2022-07-05T22:30:13;98525.53;;;12.78;74.33
19751;BME280;4663;49.120;9.730;2022-07-05T22:32:39;98535.88;;;12.75;74.19
19751;BME280;4663;49.120;9.730;2022-07-05T22:35:06;98535.13;;;12.81;74.65
19751;BME280;4663;49.120;9.730;2022-07-05T22:37:41;98539.63;;;12.74;75.92
19751;BME280;4663;49.120;9.730;2022-07-05T22:40:08;98539.72;;;12.65;77.03
19751;BME280;4663;49.120;9.730;2022-07-05T22:42:34;98543.91;;;12.68;77.35
19751;BME280;4663;49.120;9.730;2022-07-05T22:44:59;98544.19;;;12.58;78.29
19751;BME280;4663;49.120;9.730;2022-07-05T22:47:24;98541.75;;;12.48;78.43
19751;BME280;4663;49.120;9.730;2022-07-05T22:49:50;98546.63;;;12.53;78.07
19751;BME280;4663;49.120;9.730;2022-07-05T22:52:15;98538.69;;;12.51;78.36
19751;BME280;4663;49.120;9.730;2022-07-05T22:54:40;98538.41;;;12.61;78.19
19751;BME280;4663;49.120;9.730;2022-07-05T22:57:06;98540.00;;;12.55;78.75
19751;BME280;4663;49.120;9.730;2022-07-05T22:59:31;98542.44;;;12.50;78.60
19751;BME280;4663;49.120;9.730;2022-07-05T23:01:57;98543.94;;;12.53;78.75
19751;BME280;4663;49.120;9.730;2022-07-05T23:04:22;98551.47;;;12.42;79.41
19751;BME280;4663;49.120;9.730;2022-07-05T23:06:47;98549.44;;;12.44;79.00
19751;BME280;4663;49.120;9.730;2022-07-05T23:09:13;98549.13;;;12.39;78.19
19751;BME280;4663;49.120;9.730;2022-07-05T23:11:38;98546.72;;;12.44;78.10
19751;BME280;4663;49.120;9.730;2022-07-05T23:14:03;98548.66;;;12.36;78.62
19751;BME280;4663;49.120;9.730;2022-07-05T23:16:29;98549.97;;;12.25;80.10
19751;BME280;4663;49.120;9.730;2022-07-05T23:18:54;98551.81;;;12.09;80.64
19751;BME280;4663;49.120;9.730;2022-07-05T23:21:20;98549.03;;;12.17;80.97
19751;BME280;4663;49.120;9.730;2022-07-05T23:23:45;98546.03;;;12.12;80.18
19751;BME280;4663;49.120;9.730;2022-07-05T23:26:31;98551.66;;;12.02;81.01
19751;BME280;4663;49.120;9.730;2022-07-05T23:28:56;98556.13;;;11.95;81.32
19751;BME280;4663;49.120;9.730;2022-07-05T23:31:22;98551.44;;;12.12;79.88
19751;BME280;4663;49.120;9.730;2022-07-05T23:33:47;98560.56;;;12.11;80.40
19751;BME280;4663;49.120;9.730;2022-07-05T23:36:12;98557.22;;;12.09;80.06
19751;BME280;4663;49.120;9.730;2022-07-05T23:38:38;98550.78;;;12.10;80.35
19751;BME280;4663;49.120;9.730;2022-07-05T23:41:03;98544.44;;;12.18;79.27
19751;BME280;4663;49.120;9.730;2022-07-05T23:43:29;98561.88;;;12.15;79.79
19751;BME280;4663;49.120;9.730;2022-07-05T23:45:54;98557.69;;;11.89;80.73
19751;BME280;4663;49.120;9.730;2022-07-05T23:48:19;98553.94;;;11.90;80.36
19751;BME280;4663;49.120;9.730;2022-07-05T23:50:45;98557.34;;;11.92;79.73
19751;BME280;4663;49.120;9.730;2022-07-05T23:53:10;98565.03;;;11.80;79.78
19751;BME280;4663;49.120;9.730;2022-07-05T23:55:35;98563.00;;;11.83;80.35
19751;BME280;4663;49.120;9.730;2022-07-05T23:58:01;98561.72;;;11.70;80.96
